Time;durP1;ratioP1;P1;durP2;ratioP2;P2;SDS_P1;SDS_P2;PMS_P1;PMS_P2;Temp;Humidity;BMP_temperature;BMP_pressure;BME280_temperature;BME280_humidity;BME280_pressure;Samples;Min_cycle;Max_cycle;Signal;HPM_P1;HPM_P2
2023/10/29 00:01:19;;;;;;;;;;;13.70;64.40;;;12.57;64.17;99964.81;12281319;19;19926;-81
2023/10/29 00:05:20;;;;;;;;;;;13.60;64.30;;;12.53;64.22;99948.50;12284378;19;19925;-81
2023/10/29 00:09:22;;;;;;;;;;;13.60;64.40;;;12.48;64.20;99960.28;12280643;19;19923;-83
2023/10/29 00:13:25;;;;;;;;;;;13.60;64.40;;;12.47;64.10;99956.81;12284786;19;19919;-82
2023/10/29 00:17:26;;;;;;;;;;;13.60;64.40;;;12.45;64.10;99947.41;12280422;19;19919;-83
2023/10/29 00:21:30;;;;;;;;;;;13.50;64.40;;;12.42;64.33;99942.41;12285621;19;19933;-83
2023/10/29 00:25:32;;;;;;;;;;;13.50;64.50;;;12.36;64.29;99934.06;12288097;19;19907;-83
2023/10/29 00:29:33;;;;;;;;;;;13.50;64.60;;;12.38;64.24;99936.56;12279245;19;19919;-82
2023/10/29 00:33:35;;;;;;;;;;;13.50;64.60;;;12.30;64.34;99925.84;12282160;19;19919;-83
2023/10/29 00:37:37;;;;;;;;;;;13.40;64.50;;;12.28;64.27;99920.72;12284914;19;19906;-83
2023/10/29 00:41:38;;;;;;;;;;;13.40;64.40;;;12.17;64.26;99894.50;12276342;19;19935;-82
2023/10/29 00:45:41;;;;;;;;;;;13.40;64.50;;;12.20;64.32;99902.13;12275896;19;19924;-83
2023/10/29 00:49:42;;;;;;;;;;;13.30;64.30;;;12.20;64.27;99903.91;12283357;19;19921;-83
2023/10/29 00:53:45;;;;;;;;;;;13.40;64.50;;;12.18;64.31;99910.13;12285793;19;20277;-83
2023/10/29 00:57:47;;;;;;;;;;;13.30;64.70;;;12.15;64.30;99907.72;12279036;19;19923;-82
2023/10/29 01:01:48;;;;;;;;;;;13.40;64.80;;;12.23;64.24;99920.22;12270392;19;20257;-83
2023/10/29 01:05:50;;;;;;;;;;;13.30;64.80;;;12.22;64.35;99923.78;12273301;19;19936;-83
2023/10/29 01:09:52;;;;;;;;;;;13.30;64.80;;;12.15;64.26;99914.72;12277379;19;20026;-82
2023/10/29 01:13:53;;;;;;;;;;;13.30;64.80;;;12.14;64.38;99902.59;12280596;19;19911;-82
2023/10/29 01:17:55;;;;;;;;;;;13.30;64.70;;;12.08;64.43;99898.66;12285711;19;19919;-82
2023/10/29 01:21:56;;;;;;;;;;;13.30;64.70;;;12.13;64.48;99914.84;12279328;19;19918;-83
2023/10/29 01:25:58;;;;;;;;;;;13.30;64.70;;;12.10;64.34;99901.19;12280790;19;19929;-83
2023/10/29 01:29:59;;;;;;;;;;;13.30;64.70;;;12.12;64.29;99904.50;12277167;19;19946;-83
2023/10/29 01:34:01;;;;;;;;;;;13.30;64.70;;;12.13;64.34;99900.94;12285527;19;19919;-83
2023/10/29 01:38:03;;;;;;;;;;;13.30;64.80;;;12.11;64.38;99900.22;12285499;19;19926;-83
2023/10/29 01:42:05;;;;;;;;;;;13.20;64.70;;;12.08;64.44;99887.38;12284933;19;19935;-83
2023/10/29 01:46:06;;;;;;;;;;;13.20;64.80;;;12.04;64.22;99876.28;12282756;19;19911;-83
2023/10/29 01:50:08;;;;;;;;;;;13.20;64.80;;;11.97;64.31;99863.78;12283886;19;19930;-81
2023/10/29 01:54:11;;;;;;;;;;;13.20;64.80;;;12.05;64.50;99872.72;12297742;19;19945;-83
2023/10/29 01:58:12;;;;;;;;;;;13.10;64.80;;;12.02;64.38;99867.72;12296467;19;19923;-83
2023/10/29 02:02:14;;;;;;;;;;;13.20;65.00;;;12.03;64.45;99850.22;12297038;19;19915;-82
2023/10/29 02:06:19;;;;;;;;;;;13.20;65.00;;;12.03;64.41;99852.84;12295067;19;19930;-83
2023/10/29 02:10:21;;;;;;;;;;;13.20;65.00;;;11.95;64.41;99841.16;12288149;19;19919;-83
2023/10/29 02:14:24;;;;;;;;;;;13.20;65.00;;;12.02;64.42;99856.44;12293488;19;19942;-83
2023/10/29 02:18:25;;;;;;;;;;;13.10;65.10;;;11.86;64.44;99823.56;12294922;19;19914;-81
2023/10/29 02:22:29;;;;;;;;;;;13.20;65.10;;;12.01;64.44;99844.28;12289735;19;19922;-83
2023/10/29 02:26:31;;;;;;;;;;;13.10;65.10;;;12.03;64.46;99845.00;12291322;19;19939;-81
2023/10/29 02:30:35;;;;;;;;;;;13.10;65.10;;;12.01;64.58;99834.63;12280738;19;19947;-82
2023/10/29 02:34:37;;;;;;;;;;;13.20;65.30;;;11.97;64.51;99835.00;12288943;19;19923;-83
2023/10/29 02:38:38;;;;;;;;;;;13.20;65.40;;;11.92;64.44;99830.94;12289080;19;19942;-83
2023/10/29 02:42:41;;;;;;;;;;;13.20;65.40;;;12.09;64.59;99857.63;12291281;19;19919;-83
2023/10/29 02:46:42;;;;;;;;;;;13.20;65.50;;;12.06;64.42;99868.31;12287518;19;19911;-82
2023/10/29 02:50:44;;;;;;;;;;;13.20;65.50;;;12.09;64.54;99860.22;12287254;19;19903;-83
2023/10/29 02:54:46;;;;;;;;;;;13.20;65.60;;;12.13;64.60;99869.53;12280793;19;19982;-82
2023/10/29 02:58:48;;;;;;;;;;;13.20;65.70;;;12.13;64.48;99866.91;12280507;19;19919;-82
2023/10/29 03:02:50;;;;;;;;;;;13.30;65.90;;;12.13;64.64;99864.31;12290889;19;19911;-82
2023/10/29 03:06:52;;;;;;;;;;;13.30;66.90;;;12.15;64.64;99873.72;12288861;19;19930;-82
2023/10/29 03:10:53;;;;;;;;;;;13.30;66.20;;;12.11;64.63;99866.19;12280586;19;19911;-82
2023/10/29 03:14:55;;;;;;;;;;;13.30;66.20;;;12.12;64.44;99879.19;12288452;19;19926;-82
2023/10/29 03:18:56;;;;;;;;;;;13.30;66.20;;;12.23;64.56;99894.03;12288104;19;19915;-82
2023/10/29 03:22:58;;;;;;;;;;;13.40;66.50;;;12.25;64.57;99893.94;12293800;19;19931;-82
2023/10/29 03:27:00;;;;;;;;;;;13.40;66.50;;;12.18;64.65;99862.16;12294591;19;19915;-84
2023/10/29 03:31:08;;;;;;;;;;;13.40;66.90;;;12.28;64.60;99878.00;12289668;19;20380;-82
2023/10/29 03:35:10;;;;;;;;;;;13.50;67.00;;;12.31;64.70;99868.16;12292621;19;19932;-81
2023/10/29 03:39:11;;;;;;;;;;;13.50;66.90;;;12.32;64.68;99864.56;12283972;19;20278;-82
2023/10/29 03:43:13;;;;;;;;;;;13.50;67.20;;;12.31;64.76;99843.72;12288911;19;19923;-82
2023/10/29 03:47:15;;;;;;;;;;;13.50;67.10;;;12.39;64.80;99847.44;12291947;19;19926;-82
2023/10/29 03:51:16;;;;;;;;;;;13.50;67.50;;;12.42;64.76;99835.88;12288647;19;19951;-81
2023/10/29 03:55:19;;;;;;;;;;;13.60;67.50;;;12.45;64.82;99826.94;12292866;19;19915;-82
2023/10/29 03:59:20;;;;;;;;;;;13.60;67.70;;;12.47;64.71;99815.41;12286851;19;19923;-82
2023/10/29 04:03:22;;;;;;;;;;;13.60;67.80;;;12.50;64.74;99814.34;12292554;19;19959;-82
2023/10/29 04:07:23;;;;;;;;;;;13.70;68.10;;;12.51;64.78;99797.69;12291608;19;19962;-82
2023/10/29 04:11:25;;;;;;;;;;;13.70;67.90;;;12.55;64.80;99805.16;12288384;19;19915;-81
2023/10/29 04:15:26;;;;;;;;;;;13.70;67.80;;;12.57;64.83;99808.50;12287761;19;19923;-82
2023/10/29 04:19:28;;;;;;;;;;;13.80;67.80;;;12.60;64.77;99802.19;12289249;19;19907;-81
2023/10/29 04:23:29;;;;;;;;;;;13.80;68.00;;;12.64;64.87;99798.41;12290281;19;19922;-81
2023/10/29 04:27:31;;;;;;;;;;;13.80;68.30;;;12.66;64.91;99799.09;12289418;19;19921;-82
2023/10/29 04:31:33;;;;;;;;;;;13.80;68.00;;;12.66;64.87;99798.25;12286168;19;19923;-82
2023/10/29 04:35:34;;;;;;;;;;;13.90;67.90;;;12.72;64.87;99803.88;12290149;19;19918;-82
2023/10/29 04:39:38;;;;;;;;;;;13.90;67.80;;;12.73;64.94;99794.22;12287766;19;19946;-82
2023/10/29 04:43:42;;;;;;;;;;;13.90;68.00;;;12.76;65.09;99794.78;12288616;19;19934;-82
2023/10/29 04:47:44;;;;;;;;;;;13.90;67.70;;;12.78;64.84;99777.16;12286008;19;19918;-82
2023/10/29 04:51:46;;;;;;;;;;;13.90;68.00;;;12.81;64.86;99765.63;12289312;19;19918;-82
2023/10/29 04:55:47;;;;;;;;;;;14.00;68.30;;;12.82;64.93;99748.94;12289886;19;19919;-81
2023/10/29 04:59:49;;;;;;;;;;;14.00;68.20;;;12.84;64.85;99758.34;12288781;19;19922;-82
2023/10/29 05:03:51;;;;;;;;;;;14.00;68.10;;;12.88;64.94;99752.84;12289780;19;19927;-81
2023/10/29 05:07:53;;;;;;;;;;;14.00;68.00;;;12.81;65.00;99732.38;12287379;19;19932;-82
2023/10/29 05:11:54;;;;;;;;;;;14.00;67.80;;;12.87;64.99;99732.84;12288340;19;19914;-81
2023/10/29 05:15:56;;;;;;;;;;;14.10;68.20;;;12.82;65.01;99723.56;12290478;19;19917;-81
2023/10/29 05:19:58;;;;;;;;;;;14.10;68.30;;;12.95;64.93;99725.19;12284125;19;19914;-82
2023/10/29 05:23:59;;;;;;;;;;;14.10;68.60;;;12.94;64.93;99713.88;12284331;19;19924;-82
2023/10/29 05:28:01;;;;;;;;;;;14.10;69.80;;;12.94;65.03;99708.66;12282663;19;20269;-81
2023/10/29 05:32:03;;;;;;;;;;;14.10;69.20;;;12.93;64.95;99691.25;12288290;19;19911;-82
2023/10/29 05:36:05;;;;;;;;;;;14.10;68.80;;;13.00;65.00;99709.94;12289813;19;19919;-82
2023/10/29 05:40:09;;;;;;;;;;;14.20;69.10;;;13.02;65.05;99705.41;12288570;19;20275;-81
2023/10/29 05:44:11;;;;;;;;;;;14.20;68.80;;;13.06;64.98;99701.56;12286131;19;20035;-81
2023/10/29 05:48:12;;;;;;;;;;;14.20;69.10;;;13.07;65.11;99700.63;12281344;19;19915;-81
2023/10/29 05:52:14;;;;;;;;;;;14.20;69.40;;;13.07;65.09;99698.00;12282028;19;19927;-82
2023/10/29 05:56:18;;;;;;;;;;;14.30;69.50;;;13.10;64.99;99703.00;12286080;19;19933;-81
2023/10/29 06:00:19;;;;;;;;;;;14.30;69.70;;;13.12;65.10;99702.84;12286501;19;19947;-81
2023/10/29 06:04:21;;;;;;;;;;;14.30;69.50;;;12.67;65.05;99627.91;12284889;19;19942;-81
2023/10/29 06:08:22;;;;;;;;;;;14.30;69.80;;;13.13;65.20;99707.16;12284069;19;19920;-81
2023/10/29 06:12:24;;;;;;;;;;;14.30;69.60;;;13.15;65.10;99700.81;12285419;19;19915;-81
2023/10/29 06:16:26;;;;;;;;;;;14.30;69.40;;;13.19;65.14;99714.50;12284079;19;19930;-80
2023/10/29 06:20:28;;;;;;;;;;;14.30;70.50;;;13.11;65.13;99688.09;12281203;19;19914;-81
2023/10/29 06:24:29;;;;;;;;;;;14.50;70.40;;;13.23;65.11;99703.63;12285078;19;19923;-81
2023/10/29 06:28:31;;;;;;;;;;;14.40;69.70;;;13.23;65.21;99698.41;12281310;19;19926;-82
2023/10/29 06:32:33;;;;;;;;;;;14.40;71.00;;;13.25;65.11;99693.84;12271690;19;19934;-81
2023/10/29 06:36:34;;;;;;;;;;;14.40;71.10;;;13.30;65.21;99698.75;12279575;19;19937;-81
2023/10/29 06:40:35;;;;;;;;;;;14.40;70.90;;;13.32;65.12;99691.59;12288998;19;19929;-83
2023/10/29 06:44:37;;;;;;;;;;;14.50;70.50;;;13.36;65.15;99689.53;12282194;19;19918;-83
2023/10/29 06:48:41;;;;;;;;;;;14.50;70.70;;;13.38;65.19;99698.09;12285305;19;19922;-82
2023/10/29 06:52:42;;;;;;;;;;;14.50;71.80;;;13.33;65.12;99687.16;12272274;19;19921;-83
2023/10/29 06:56:44;;;;;;;;;;;14.50;71.40;;;13.41;65.27;99692.59;12269479;19;19947;-81
2023/10/29 07:00:45;;;;;;;;;;;14.50;71.00;;;13.39;65.24;99694.50;12264855;19;19938;-82
2023/10/29 07:04:46;;;;;;;;;;;14.60;70.60;;;13.42;65.22;99709.97;12267527;19;19939;-82
2023/10/29 07:08:48;;;;;;;;;;;14.80;70.40;;;13.50;65.18;99712.81;12269548;19;19913;-83
2023/10/29 07:12:49;;;;;;;;;;;14.60;70.60;;;13.45;65.29;99691.41;12271387;19;19919;-83
2023/10/29 07:16:51;;;;;;;;;;;14.70;70.20;;;13.51;65.13;99690.88;12271877;19;19911;-82
2023/10/29 07:20:53;;;;;;;;;;;14.70;71.20;;;13.58;65.18;99694.63;12272343;19;19915;-83
2023/10/29 07:24:55;;;;;;;;;;;14.70;70.20;;;13.58;65.21;99676.25;12276477;19;19911;-83
2023/10/29 07:28:56;;;;;;;;;;;14.70;70.40;;;13.57;65.30;99664.13;12275081;19;20026;-83
2023/10/29 07:32:57;;;;;;;;;;;14.70;70.70;;;13.64;65.27;99669.69;12275339;19;19918;-82
2023/10/29 07:36:59;;;;;;;;;;;14.80;70.10;;;13.66;65.25;99675.63;12279557;19;20025;-82
2023/10/29 07:41:01;;;;;;;;;;;14.80;70.00;;;13.65;65.39;99666.09;12253321;19;19931;-82
2023/10/29 07:45:02;;;;;;;;;;;14.80;69.80;;;13.73;65.30;99671.53;12248366;19;20314;-82
2023/10/29 07:49:04;;;;;;;;;;;14.80;69.90;;;13.73;65.30;99679.38;12270050;19;19915;-83
2023/10/29 07:53:05;;;;;;;;;;;14.80;69.60;;;13.76;65.34;99696.66;12268024;19;19919;-83
2023/10/29 07:57:06;;;;;;;;;;;14.90;69.60;;;13.70;65.34;99690.16;12276932;19;19982;-83
2023/10/29 08:01:12;;;;;;;;;;;14.90;69.70;;;13.78;65.31;99703.44;12255048;19;20006;-83
2023/10/29 08:05:14;;;;;;;;;;;14.90;70.10;;;13.71;65.21;99676.88;12274553;19;20263;-81
2023/10/29 08:09:16;;;;;;;;;;;14.90;70.60;;;13.81;65.32;99699.72;12273762;19;19926;-82
2023/10/29 08:13:17;;;;;;;;;;;15.00;70.00;;;13.83;65.31;99690.78;12278507;19;19930;-83
2023/10/29 08:17:20;;;;;;;;;;;15.00;70.40;;;13.76;65.36;99679.13;12273274;19;19918;-83
2023/10/29 08:21:22;;;;;;;;;;;15.00;69.80;;;13.82;65.36;99694.34;12272873;19;19910;-82
2023/10/29 08:25:24;;;;;;;;;;;15.00;69.70;;;13.75;65.14;99666.97;12275408;19;19926;-83
2023/10/29 08:29:26;;;;;;;;;;;15.00;70.20;;;13.81;65.27;99655.94;12271287;19;19918;-83
2023/10/29 08:33:27;;;;;;;;;;;15.00;71.50;;;13.85;65.27;99659.13;12269953;19;19947;-82
2023/10/29 08:37:29;;;;;;;;;;;15.00;71.20;;;13.86;65.37;99658.19;12267607;19;19930;-83
2023/10/29 08:41:30;;;;;;;;;;;15.00;71.40;;;13.85;65.35;99657.38;12266305;19;19923;-83
2023/10/29 08:45:36;;;;;;;;;;;15.00;71.10;;;13.88;65.28;99656.25;12276054;19;19986;-83
2023/10/29 08:49:37;;;;;;;;;;;15.10;71.30;;;13.92;65.38;99653.22;12277512;19;19942;-84
2023/10/29 08:53:39;;;;;;;;;;;15.00;70.20;;;13.91;65.43;99635.00;12268957;19;19915;-83
2023/10/29 08:57:40;;;;;;;;;;;15.10;70.10;;;13.90;65.39;99634.16;12269617;19;19918;-83
2023/10/29 09:01:42;;;;;;;;;;;15.10;70.50;;;14.00;65.27;99647.31;12261734;19;19942;-83
2023/10/29 09:05:46;;;;;;;;;;;15.10;70.50;;;13.95;65.56;99644.25;12247444;19;19919;-82
2023/10/29 09:09:48;;;;;;;;;;;15.20;70.30;;;13.82;65.29;99618.25;12245322;19;19923;-82
2023/10/29 09:13:49;;;;;;;;;;;15.20;70.10;;;14.10;65.28;99666.56;12243841;19;19922;-81
2023/10/29 09:17:51;;;;;;;;;;;15.20;70.80;;;14.03;65.31;99656.72;12248818;19;19915;-82
2023/10/29 09:21:52;;;;;;;;;;;15.20;70.50;;;14.15;65.42;99674.03;12248434;19;19930;-82
2023/10/29 09:25:54;;;;;;;;;;;15.30;70.40;;;14.16;65.41;99649.44;12249255;19;19943;-81
2023/10/29 09:29:56;;;;;;;;;;;15.30;70.70;;;14.19;65.37;99658.84;12260096;19;19919;-83
2023/10/29 09:33:57;;;;;;;;;;;15.30;70.80;;;14.23;65.33;99654.97;12264289;19;19919;-83
2023/10/29 09:37:59;;;;;;;;;;;15.40;70.80;;;14.24;65.44;99661.91;12263022;19;19954;-83
2023/10/29 09:42:08;;;;;;;;;;;15.50;71.30;;;14.39;65.39;99673.66;12262889;19;19946;-83
2023/10/29 09:46:11;;;;;;;;;;;15.50;71.30;;;14.37;65.46;99658.06;12275772;19;19923;-84
2023/10/29 09:50:13;;;;;;;;;;;15.50;71.40;;;14.47;65.49;99665.94;12264880;19;19926;-83
2023/10/29 09:54:14;;;;;;;;;;;15.60;71.10;;;14.48;65.52;99654.47;12277192;19;20029;-83
2023/10/29 09:58:16;;;;;;;;;;;15.60;71.70;;;14.52;65.38;99650.63;12277385;19;19914;-82
2023/10/29 10:02:17;;;;;;;;;;;15.70;71.10;;;14.56;65.39;99652.03;12281265;19;19925;-82
2023/10/29 10:06:20;;;;;;;;;;;15.70;71.60;;;14.50;65.43;99651.69;12266993;19;19934;-83
2023/10/29 10:10:35;;;;;;;;;;;15.80;70.70;;;14.64;65.50;99676.81;12268904;19;19919;-82
2023/10/29 10:14:38;;;;;;;;;;;15.80;70.60;;;14.68;65.48;99662.41;12288092;19;19919;-83
2023/10/29 10:18:51;;;;;;;;;;;15.80;70.60;;;14.69;65.31;99664.06;12271739;19;19919;-83
2023/10/29 10:23:00;;;;;;;;;;;15.80;71.20;;;14.71;65.54;99659.50;12282959;19;19919;-83
2023/10/29 10:27:02;;;;;;;;;;;15.80;70.60;;;14.72;65.48;99672.53;12282466;19;19943;-83
2023/10/29 10:31:13;;;;;;;;;;;15.90;70.90;;;14.70;65.39;99669.19;12280388;19;19918;-83
2023/10/29 10:35:15;;;;;;;;;;;15.90;70.50;;;14.77;65.53;99706.25;12283164;19;19950;-82
2023/10/29 10:39:22;;;;;;;;;;;15.90;70.40;;;14.74;65.57;99677.63;12283103;19;19919;-81
2023/10/29 10:43:25;;;;;;;;;;;15.90;70.30;;;14.83;65.55;99711.81;12283943;19;20340;-83
2023/10/29 10:47:28;;;;;;;;;;;16.00;70.20;;;14.83;65.30;99705.72;12286322;19;19914;-82
2023/10/29 10:51:31;;;;;;;;;;;16.00;70.10;;;14.91;65.28;99679.59;12278662;19;19964;-82
2023/10/29 10:55:34;;;;;;;;;;;16.00;70.10;;;14.93;65.39;99684.69;12280255;19;19918;-81
2023/10/29 10:59:36;;;;;;;;;;;16.10;70.20;;;14.88;65.32;99650.09;12268035;19;19914;-81
2023/10/29 11:03:38;;;;;;;;;;;16.10;70.20;;;14.85;65.29;99639.88;12277180;19;19914;-81
2023/10/29 11:07:44;;;;;;;;;;;16.10;70.60;;;14.98;65.32;99646.50;12276935;19;19915;-83
2023/10/29 11:11:51;;;;;;;;;;;16.10;70.10;;;14.92;65.41;99646.22;12268227;19;20609;-81
2023/10/29 11:15:53;;;;;;;;;;;16.20;70.30;;;15.01;65.50;99656.75;12266427;19;19919;-83
2023/10/29 11:19:57;;;;;;;;;;;16.20;70.40;;;15.08;65.39;99671.97;12262339;19;19922;-83
2023/10/29 11:24:18;;;;;;;;;;;16.20;70.40;;;15.09;65.50;99674.44;12277484;19;19919;-82
2023/10/29 11:28:32;;;;;;;;;;;16.20;70.60;;;15.14;65.64;99655.63;12278919;19;20348;-83
2023/10/29 11:32:35;;;;;;;;;;;16.30;71.10;;;15.10;65.49;99644.56;12282974;19;19925;-82
2023/10/29 11:36:41;;;;;;;;;;;16.30;71.20;;;15.27;65.54;99650.91;12276772;19;19911;-83
2023/10/29 11:40:43;;;;;;;;;;;16.40;71.40;;;15.35;65.72;99631.78;12267834;19;19907;-82
2023/10/29 11:44:44;;;;;;;;;;;16.40;71.60;;;15.39;65.58;99615.56;12268736;19;19922;-82
2023/10/29 11:49:03;;;;;;;;;;;16.50;72.70;;;15.51;65.74;99636.44;12274657;19;19911;-83
2023/10/29 11:53:04;;;;;;;;;;;16.60;72.30;;;15.55;65.54;99643.06;12274832;19;19934;-82
2023/10/29 11:57:06;;;;;;;;;;;16.70;71.80;;;15.54;65.56;99630.91;12271501;19;20253;-83
2023/10/29 12:01:08;;;;;;;;;;;16.70;71.30;;;15.65;65.62;99635.97;12269957;19;19922;-82
2023/10/29 12:05:10;;;;;;;;;;;16.80;71.40;;;15.66;65.29;99621.84;12274041;19;19936;-83
2023/10/29 12:09:21;;;;;;;;;;;16.90;71.40;;;15.79;65.46;99643.44;12269218;19;19934;-83
2023/10/29 12:13:23;;;;;;;;;;;16.90;70.70;;;15.81;65.58;99638.84;12270196;19;19922;-83
2023/10/29 12:17:27;;;;;;;;;;;17.00;70.70;;;15.84;65.52;99630.66;12268160;19;19926;-82
2023/10/29 12:21:28;;;;;;;;;;;17.00;70.50;;;15.89;65.51;99652.13;12269094;19;20615;-83
2023/10/29 12:25:30;;;;;;;;;;;17.10;69.80;;;15.97;65.51;99653.19;12267463;19;19926;-81
2023/10/29 12:29:31;;;;;;;;;;;17.10;70.00;;;16.03;65.43;99657.88;12264576;19;19929;-83
2023/10/29 12:33:34;;;;;;;;;;;17.20;70.10;;;16.06;65.53;99647.03;12267838;19;19925;-82
2023/10/29 12:37:36;;;;;;;;;;;17.20;69.90;;;16.08;65.71;99645.09;12266948;19;19928;-83
2023/10/29 12:41:37;;;;;;;;;;;17.20;69.80;;;16.14;65.66;99639.25;12259805;19;19979;-82
2023/10/29 12:45:38;;;;;;;;;;;17.30;69.70;;;16.05;65.53;99611.16;12266280;19;21155;-84
2023/10/29 12:49:40;;;;;;;;;;;17.30;69.70;;;16.11;65.47;99615.84;12261965;19;19919;-84
2023/10/29 12:53:41;;;;;;;;;;;17.30;69.70;;;16.24;65.58;99618.94;12264252;19;19974;-83
2023/10/29 12:57:43;;;;;;;;;;;17.40;69.70;;;16.29;65.48;99642.22;12268916;19;19906;-83
2023/10/29 13:01:56;;;;;;;;;;;17.40;69.70;;;16.20;65.35;99614.94;12268205;19;20337;-83
2023/10/29 13:05:58;;;;;;;;;;;17.50;69.80;;;16.36;65.48;99630.09;12271870;19;20394;-82
2023/10/29 13:10:06;;;;;;;;;;;17.50;69.80;;;16.33;65.48;99620.69;12269514;19;19950;-82
2023/10/29 13:14:08;;;;;;;;;;;17.50;69.60;;;16.39;65.46;99619.28;12263686;19;19957;-83
2023/10/29 13:18:10;;;;;;;;;;;17.60;69.60;;;16.47;65.44;99629.03;12271805;19;19915;-81
2023/10/29 13:22:11;;;;;;;;;;;17.60;69.60;;;16.50;65.48;99631.38;12271787;19;19926;-83
2023/10/29 13:26:12;;;;;;;;;;;17.60;69.50;;;16.52;65.47;99632.88;12270814;19;20356;-81
2023/10/29 13:30:14;;;;;;;;;;;17.70;69.60;;;16.56;65.45;99625.53;12271183;19;19934;-83
2023/10/29 13:34:15;;;;;;;;;;;17.70;69.50;;;16.57;65.25;99630.63;12273412;19;19915;-81
2023/10/29 13:38:17;;;;;;;;;;;17.70;69.50;;;16.63;65.63;99636.28;12272524;19;19930;-83
2023/10/29 13:42:19;;;;;;;;;;;17.80;69.30;;;16.65;65.48;99634.34;12271359;19;19950;-81
2023/10/29 13:46:20;;;;;;;;;;;17.80;69.30;;;16.59;65.46;99622.59;12270215;19;19995;-81
2023/10/29 13:50:22;;;;;;;;;;;17.80;69.30;;;16.66;65.44;99635.97;12277113;19;19919;-83
2023/10/29 13:54:23;;;;;;;;;;;17.90;69.40;;;16.68;65.38;99640.13;12282630;19;19930;-82
2023/10/29 13:58:24;;;;;;;;;;;17.90;69.40;;;16.68;65.39;99631.41;12280085;19;19915;-82
2023/10/29 14:02:26;;;;;;;;;;;17.90;69.30;;;16.71;65.48;99634.53;12277471;19;19919;-82
2023/10/29 14:06:29;;;;;;;;;;;17.90;69.30;;;16.72;65.17;99643.31;12281981;19;19919;-81
2023/10/29 14:10:31;;;;;;;;;;;17.90;69.10;;;16.57;65.35;99606.91;12278523;19;19944;-81
2023/10/29 14:14:33;;;;;;;;;;;17.90;69.10;;;16.69;65.20;99623.34;12284334;19;19919;-83
2023/10/29 14:18:35;;;;;;;;;;;17.90;69.10;;;16.69;65.29;99625.97;12287545;19;20260;-81
2023/10/29 14:22:37;;;;;;;;;;;17.90;69.00;;;16.68;65.40;99611.13;12283568;19;20398;-82
2023/10/29 14:26:38;;;;;;;;;;;17.80;68.60;;;16.67;65.32;99609.47;12280479;19;20035;-84
2023/10/29 14:30:40;;;;;;;;;;;17.80;68.50;;;16.59;65.29;99596.22;12278423;19;19986;-82
2023/10/29 14:34:41;;;;;;;;;;;17.80;68.50;;;16.54;65.37;99587.94;12279990;19;19911;-83
2023/10/29 14:38:43;;;;;;;;;;;17.80;68.40;;;16.65;65.15;99613.25;12272568;19;20335;-85
2023/10/29 14:42:47;;;;;;;;;;;17.70;68.30;;;16.63;65.13;99608.13;12274491;19;19923;-82
2023/10/29 14:46:51;;;;;;;;;;;17.70;68.10;;;16.36;65.20;99558.94;12283997;19;19919;-83
2023/10/29 14:50:53;;;;;;;;;;;17.70;68.10;;;16.61;65.27;99596.91;12273112;19;19915;-83
2023/10/29 14:54:55;;;;;;;;;;;17.70;68.40;;;16.53;65.00;99575.75;12287342;19;19923;-82
2023/10/29 14:58:56;;;;;;;;;;;17.70;68.40;;;16.51;65.36;99568.00;12280658;19;19923;-83
2023/10/29 15:02:58;;;;;;;;;;;17.70;68.40;;;16.50;64.95;99571.63;12265061;19;19960;-83
2023/10/29 15:07:00;;;;;;;;;;;17.60;68.40;;;16.52;65.10;99580.19;12276199;19;19918;-83
2023/10/29 15:11:01;;;;;;;;;;;17.60;68.30;;;16.49;65.21;99612.09;12274747;19;19923;-80
2023/10/29 15:15:05;;;;;;;;;;;17.60;68.30;;;16.48;65.08;99641.25;12286200;19;19918;-82
2023/10/29 15:19:07;;;;;;;;;;;17.60;68.60;;;16.47;65.28;99647.50;12283938;19;19930;-83
2023/10/29 15:23:08;;;;;;;;;;;17.50;68.60;;;16.47;65.09;99616.72;12288133;19;19919;-83
2023/10/29 15:27:09;;;;;;;;;;;17.60;68.70;;;16.43;65.11;99609.25;12286771;19;19923;-83
2023/10/29 15:31:11;;;;;;;;;;;17.50;68.60;;;16.37;65.28;99586.97;12265913;19;19933;-83
2023/10/29 15:35:13;;;;;;;;;;;17.50;68.60;;;16.29;65.08;99586.91;12260835;19;19923;-83
2023/10/29 15:39:14;;;;;;;;;;;17.50;68.70;;;16.35;65.23;99604.72;12263488;19;20593;-82
2023/10/29 15:43:16;;;;;;;;;;;17.40;68.70;;;16.22;65.19;99599.81;12262699;19;19927;-83
2023/10/29 15:47:22;;;;;;;;;;;17.40;68.90;;;16.33;65.09;99610.13;12261038;19;19975;-83
2023/10/29 15:51:25;;;;;;;;;;;17.40;69.00;;;16.33;64.98;99604.88;12255215;19;19927;-82
2023/10/29 15:55:27;;;;;;;;;;;17.40;69.10;;;16.33;64.98;99601.41;12261680;19;19927;-83
2023/10/29 15:59:29;;;;;;;;;;;17.30;69.00;;;16.22;65.12;99605.09;12256363;19;19915;-82
2023/10/29 16:03:31;;;;;;;;;;;17.30;69.00;;;16.24;64.89;99613.69;12264917;19;19982;-82
2023/10/29 16:07:32;;;;;;;;;;;17.30;69.00;;;16.33;65.11;99638.28;12261732;19;19967;-82
2023/10/29 16:11:34;;;;;;;;;;;17.30;69.00;;;16.31;65.12;99641.09;12261724;19;20502;-82
2023/10/29 16:15:35;;;;;;;;;;;17.30;69.00;;;16.26;64.93;99627.53;12260882;19;19923;-82
2023/10/29 16:19:37;;;;;;;;;;;17.30;69.10;;;16.01;64.99;99586.91;12266846;19;20320;-83
2023/10/29 16:23:39;;;;;;;;;;;17.30;69.10;;;16.30;64.96;99622.78;12262704;19;19919;-82
2023/10/29 16:27:46;;;;;;;;;;;17.30;69.10;;;16.15;64.87;99582.97;12266478;19;20284;-82
2023/10/29 16:31:48;;;;;;;;;;;17.30;69.20;;;16.24;64.93;99587.34;12273539;19;19915;-82
2023/10/29 16:35:52;;;;;;;;;;;17.30;69.20;;;16.19;64.87;99570.31;12275363;19;19917;-82
2023/10/29 16:39:53;;;;;;;;;;;17.20;69.10;;;16.19;65.06;99578.22;12276318;19;19959;-83
2023/10/29 16:43:55;;;;;;;;;;;17.20;69.00;;;16.23;65.13;99596.22;12274313;19;19919;-82
2023/10/29 16:47:57;;;;;;;;;;;17.20;69.80;;;16.20;65.02;99572.78;12270644;19;20455;-83
2023/10/29 16:51:59;;;;;;;;;;;17.20;69.00;;;16.16;64.98;99555.63;12279828;19;19911;-83
2023/10/29 16:56:06;;;;;;;;;;;17.20;68.90;;;16.16;64.94;99568.81;12278702;19;20011;-83
2023/10/29 17:00:08;;;;;;;;;;;17.20;68.80;;;16.13;64.92;99574.38;12274014;19;19938;-82
2023/10/29 17:04:10;;;;;;;;;;;17.20;68.80;;;16.04;64.99;99589.28;12277698;19;19938;-82
2023/10/29 17:08:12;;;;;;;;;;;17.20;68.80;;;16.13;65.01;99606.00;12275978;19;19915;-83
2023/10/29 17:12:14;;;;;;;;;;;17.10;68.80;;;16.13;64.89;99600.72;12279867;19;19911;-82
2023/10/29 17:16:16;;;;;;;;;;;17.10;68.90;;;16.05;64.91;99587.47;12279305;19;20014;-82
2023/10/29 17:20:18;;;;;;;;;;;17.10;68.90;;;16.08;64.81;99587.16;12275399;19;19958;-84
2023/10/29 17:24:19;;;;;;;;;;;17.10;68.80;;;16.04;64.95;99564.72;12274667;19;19947;-82
2023/10/29 17:28:20;;;;;;;;;;;17.10;68.70;;;15.99;64.97;99588.06;12249418;19;20313;-83
2023/10/29 17:32:22;;;;;;;;;;;17.00;68.60;;;15.98;65.03;99581.13;12274284;19;19947;-82
2023/10/29 17:36:23;;;;;;;;;;;17.00;68.80;;;15.84;64.95;99542.97;12276497;19;20306;-83
2023/10/29 17:40:25;;;;;;;;;;;17.00;68.90;;;15.96;64.82;99562.84;12273899;19;19935;-82
2023/10/29 17:44:27;;;;;;;;;;;16.90;68.90;;;15.94;65.01;99562.16;12277770;19;19930;-83
2023/10/29 17:48:29;;;;;;;;;;;16.90;69.00;;;15.92;64.94;99535.97;12276981;19;19929;-82
2023/10/29 17:52:30;;;;;;;;;;;16.90;69.10;;;15.89;65.02;99552.06;12273210;19;19925;-82
2023/10/29 17:56:32;;;;;;;;;;;16.90;69.10;;;15.89;64.94;99554.69;12274461;19;19926;-82
2023/10/29 18:00:33;;;;;;;;;;;16.90;69.20;;;15.89;65.01;99583.66;12273894;19;19939;-83
2023/10/29 18:04:34;;;;;;;;;;;16.90;69.30;;;15.83;64.95;99573.72;12274776;19;19919;-82
2023/10/29 18:08:36;;;;;;;;;;;16.90;69.40;;;15.81;65.04;99578.31;12270563;19;20363;-83
2023/10/29 18:12:37;;;;;;;;;;;16.80;69.40;;;15.84;65.07;99579.81;12269574;19;19922;-82
2023/10/29 18:16:38;;;;;;;;;;;16.80;69.40;;;15.35;65.04;99508.97;12272563;19;19929;-82
2023/10/29 18:20:40;;;;;;;;;;;16.80;69.50;;;15.77;65.02;99590.13;12269084;19;20502;-82